sensor_id;sensor_type;location;lat;lon;timestamp;P1;durP1;ratioP1;P2;durP2;ratioP2
22186;SDS011;11259;52.146;12.844;2022-12-07T00:01:17;2.10;;;1.27;;
22186;SDS011;11259;52.146;12.844;2022-12-07T00:03:44;2.78;;;1.05;;
22186;SDS011;11259;52.146;12.844;2022-12-07T00:06:11;1.35;;;1.25;;
22186;SDS011;11259;52.146;12.844;2022-12-07T00:08:38;2.17;;;1.77;;
22186;SDS011;11259;52.146;12.844;2022-12-07T00:11:04;1.52;;;1.20;;
22186;SDS011;11259;52.146;12.844;2022-12-07T00:13:30;1.95;;;1.33;;
22186;SDS011;11259;52.146;12.844;2022-12-07T00:15:57;2.45;;;1.10;;
22186;SDS011;11259;52.146;12.844;2022-12-07T00:18:25;1.13;;;1.00;;
22186;SDS011;11259;52.146;12.844;2022-12-07T00:20:50;2.55;;;1.30;;
22186;SDS011;11259;52.146;12.844;2022-12-07T00:23:15;1.40;;;1.30;;
22186;SDS011;11259;52.146;12.844;2022-12-07T00:25:41;1.05;;;0.95;;
22186;SDS011;11259;52.146;12.844;2022-12-07T00:28:06;2.03;;;1.55;;
22186;SDS011;11259;52.146;12.844;2022-12-07T00:30:31;2.70;;;1.02;;
22186;SDS011;11259;52.146;12.844;2022-12-07T00:32:58;1.55;;;1.20;;
22186;SDS011;11259;52.146;12.844;2022-12-07T00:35:23;2.00;;;1.42;;
22186;SDS011;11259;52.146;12.844;2022-12-07T00:37:49;0.90;;;0.90;;
22186;SDS011;11259;52.146;12.844;2022-12-07T00:40:14;1.17;;;1.15;;
22186;SDS011;11259;52.146;12.844;2022-12-07T00:42:39;0.90;;;0.85;;
22186;SDS011;11259;52.146;12.844;2022-12-07T00:45:05;1.63;;;1.23;;
22186;SDS011;11259;52.146;12.844;2022-12-07T00:47:31;1.38;;;1.27;;
22186;SDS011;11259;52.146;12.844;2022-12-07T00:49:58;1.63;;;0.90;;
22186;SDS011;11259;52.146;12.844;2022-12-07T00:52:23;0.88;;;0.88;;
22186;SDS011;11259;52.146;12.844;2022-12-07T00:54:49;2.15;;;1.50;;
22186;SDS011;11259;52.146;12.844;2022-12-07T00:57:14;0.80;;;0.80;;
22186;SDS011;11259;52.146;12.844;2022-12-07T00:59:39;1.98;;;0.98;;
22186;SDS011;11259;52.146;12.844;2022-12-07T01:02:05;1.30;;;1.00;;
22186;SDS011;11259;52.146;12.844;2022-12-07T01:04:30;1.50;;;0.95;;
22186;SDS011;11259;52.146;12.844;2022-12-07T01:06:59;1.10;;;1.00;;
22186;SDS011;11259;52.146;12.844;2022-12-07T01:09:25;0.95;;;0.90;;
22186;SDS011;11259;52.146;12.844;2022-12-07T01:11:50;2.85;;;1.48;;
22186;SDS011;11259;52.146;12.844;2022-12-07T01:14:15;0.63;;;0.63;;
22186;SDS011;11259;52.146;12.844;2022-12-07T01:16:41;1.10;;;1.00;;
22186;SDS011;11259;52.146;12.844;2022-12-07T01:19:06;4.22;;;1.27;;
22186;SDS011;11259;52.146;12.844;2022-12-07T01:21:32;2.65;;;1.42;;
22186;SDS011;11259;52.146;12.844;2022-12-07T01:24:00;1.50;;;1.30;;
22186;SDS011;11259;52.146;12.844;2022-12-07T01:26:26;0.80;;;0.80;;
22186;SDS011;11259;52.146;12.844;2022-12-07T01:28:51;1.15;;;1.10;;
22186;SDS011;11259;52.146;12.844;2022-12-07T01:31:17;2.03;;;1.38;;
22186;SDS011;11259;52.146;12.844;2022-12-07T01:33:45;0.93;;;0.90;;
22186;SDS011;11259;52.146;12.844;2022-12-07T01:36:13;1.15;;;1.13;;
22186;SDS011;11259;52.146;12.844;2022-12-07T01:38:39;1.08;;;1.08;;
22186;SDS011;11259;52.146;12.844;2022-12-07T01:41:06;0.90;;;0.90;;
22186;SDS011;11259;52.146;12.844;2022-12-07T01:43:32;2.70;;;1.75;;
22186;SDS011;11259;52.146;12.844;2022-12-07T01:45:58;1.23;;;1.10;;
22186;SDS011;11259;52.146;12.844;2022-12-07T01:48:25;1.17;;;1.08;;
22186;SDS011;11259;52.146;12.844;2022-12-07T01:50:53;2.08;;;1.63;;
22186;SDS011;11259;52.146;12.844;2022-12-07T01:53:20;2.22;;;1.52;;
22186;SDS011;11259;52.146;12.844;2022-12-07T01:55:47;2.50;;;1.65;;
22186;SDS011;11259;52.146;12.844;2022-12-07T01:58:16;1.10;;;1.00;;
22186;SDS011;11259;52.146;12.844;2022-12-07T02:00:41;1.33;;;1.23;;
22186;SDS011;11259;52.146;12.844;2022-12-07T02:03:07;3.53;;;2.38;;
22186;SDS011;11259;52.146;12.844;2022-12-07T02:05:35;1.67;;;1.58;;
22186;SDS011;11259;52.146;12.844;2022-12-07T02:08:02;3.55;;;2.25;;
22186;SDS011;11259;52.146;12.844;2022-12-07T02:10:28;2.67;;;1.90;;
22186;SDS011;11259;52.146;12.844;2022-12-07T02:12:55;2.00;;;1.55;;
22186;SDS011;11259;52.146;12.844;2022-12-07T02:15:25;2.22;;;1.60;;
22186;SDS011;11259;52.146;12.844;2022-12-07T02:17:54;1.65;;;1.55;;
22186;SDS011;11259;52.146;12.844;2022-12-07T02:20:23;4.00;;;1.73;;
22186;SDS011;11259;52.146;12.844;2022-12-07T02:23:17;1.20;;;1.10;;
22186;SDS011;11259;52.146;12.844;2022-12-07T02:25:57;2.33;;;1.88;;
22186;SDS011;11259;52.146;12.844;2022-12-07T02:28:29;1.98;;;1.73;;
22186;SDS011;11259;52.146;12.844;2022-12-07T02:30:58;1.52;;;1.42;;
22186;SDS011;11259;52.146;12.844;2022-12-07T02:33:28;2.15;;;1.77;;
22186;SDS011;11259;52.146;12.844;2022-12-07T02:35:58;3.22;;;1.75;;
22186;SDS011;11259;52.146;12.844;2022-12-07T02:38:26;3.90;;;1.70;;
22186;SDS011;11259;52.146;12.844;2022-12-07T02:40:54;3.60;;;2.13;;
22186;SDS011;11259;52.146;12.844;2022-12-07T02:43:24;3.13;;;1.83;;
22186;SDS011;11259;52.146;12.844;2022-12-07T02:45:51;3.53;;;2.17;;
22186;SDS011;11259;52.146;12.844;2022-12-07T02:48:18;2.88;;;2.08;;
22186;SDS011;11259;52.146;12.844;2022-12-07T02:50:44;4.50;;;2.40;;
22186;SDS011;11259;52.146;12.844;2022-12-07T02:55:53;3.28;;;1.83;;
22186;SDS011;11259;52.146;12.844;2022-12-07T02:58:21;3.00;;;2.50;;
22186;SDS011;11259;52.146;12.844;2022-12-07T03:00:55;4.05;;;2.17;;
22186;SDS011;11259;52.146;12.844;2022-12-07T03:03:26;3.85;;;2.45;;
22186;SDS011;11259;52.146;12.844;2022-12-07T03:05:54;4.63;;;2.67;;
22186;SDS011;11259;52.146;12.844;2022-12-07T03:08:28;4.15;;;2.53;;
22186;SDS011;11259;52.146;12.844;2022-12-07T03:10:57;4.00;;;2.28;;
22186;SDS011;11259;52.146;12.844;2022-12-07T03:13:25;3.53;;;2.90;;
22186;SDS011;11259;52.146;12.844;2022-12-07T03:15:55;5.68;;;2.28;;
22186;SDS011;11259;52.146;12.844;2022-12-07T03:18:24;3.35;;;2.70;;
22186;SDS011;11259;52.146;12.844;2022-12-07T03:20:53;4.72;;;1.88;;
22186;SDS011;11259;52.146;12.844;2022-12-07T03:23:20;2.47;;;2.00;;
22186;SDS011;11259;52.146;12.844;2022-12-07T03:25:47;3.42;;;2.28;;
22186;SDS011;11259;52.146;12.844;2022-12-07T03:28:16;4.43;;;3.05;;
22186;SDS011;11259;52.146;12.844;2022-12-07T03:30:44;2.95;;;2.63;;
22186;SDS011;11259;52.146;12.844;2022-12-07T03:33:11;5.68;;;2.17;;
22186;SDS011;11259;52.146;12.844;2022-12-07T03:35:42;5.22;;;3.30;;
22186;SDS011;11259;52.146;12.844;2022-12-07T03:38:11;5.00;;;2.88;;
22186;SDS011;11259;52.146;12.844;2022-12-07T03:40:40;4.85;;;2.85;;
22186;SDS011;11259;52.146;12.844;2022-12-07T03:43:09;4.40;;;2.80;;
22186;SDS011;11259;52.146;12.844;2022-12-07T03:45:37;5.40;;;2.83;;
22186;SDS011;11259;52.146;12.844;2022-12-07T03:48:07;4.97;;;3.40;;
22186;SDS011;11259;52.146;12.844;2022-12-07T03:50:36;5.03;;;2.28;;
22186;SDS011;11259;52.146;12.844;2022-12-07T03:53:08;5.20;;;2.58;;
22186;SDS011;11259;52.146;12.844;2022-12-07T03:55:36;4.15;;;2.53;;
22186;SDS011;11259;52.146;12.844;2022-12-07T03:58:06;4.13;;;2.83;;
22186;SDS011;11259;52.146;12.844;2022-12-07T04:00:33;3.42;;;2.80;;
22186;SDS011;11259;52.146;12.844;2022-12-07T04:02:59;5.18;;;3.08;;
22186;SDS011;11259;52.146;12.844;2022-12-07T04:05:24;4.30;;;3.05;;
22186;SDS011;11259;52.146;12.844;2022-12-07T04:07:50;4.35;;;2.53;;
22186;SDS011;11259;52.146;12.844;2022-12-07T04:10:17;4.18;;;2.25;;
22186;SDS011;11259;52.146;12.844;2022-12-07T04:12:42;4.20;;;2.83;;
22186;SDS011;11259;52.146;12.844;2022-12-07T04:15:08;5.38;;;3.45;;
22186;SDS011;11259;52.146;12.844;2022-12-07T04:17:34;3.35;;;2.63;;
22186;SDS011;11259;52.146;12.844;2022-12-07T04:19:59;6.57;;;3.13;;
22186;SDS011;11259;52.146;12.844;2022-12-07T04:22:24;5.65;;;2.60;;
22186;SDS011;11259;52.146;12.844;2022-12-07T04:24:50;5.18;;;2.42;;
22186;SDS011;11259;52.146;12.844;2022-12-07T04:27:16;3.95;;;2.17;;
22186;SDS011;11259;52.146;12.844;2022-12-07T04:29:42;5.53;;;2.88;;
22186;SDS011;11259;52.146;12.844;2022-12-07T04:32:07;6.22;;;2.85;;
22186;SDS011;11259;52.146;12.844;2022-12-07T04:34:32;5.85;;;3.90;;
22186;SDS011;11259;52.146;12.844;2022-12-07T04:36:58;5.03;;;2.63;;
22186;SDS011;11259;52.146;12.844;2022-12-07T04:39:24;3.67;;;2.67;;
22186;SDS011;11259;52.146;12.844;2022-12-07T04:41:50;6.55;;;3.05;;
22186;SDS011;11259;52.146;12.844;2022-12-07T04:44:18;6.47;;;3.15;;
22186;SDS011;11259;52.146;12.844;2022-12-07T04:46:43;3.28;;;2.28;;
22186;SDS011;11259;52.146;12.844;2022-12-07T04:49:09;4.00;;;3.03;;
22186;SDS011;11259;52.146;12.844;2022-12-07T04:51:35;6.05;;;2.53;;
22186;SDS011;11259;52.146;12.844;2022-12-07T04:54:00;5.40;;;3.75;;
22186;SDS011;11259;52.146;12.844;2022-12-07T04:56:26;3.65;;;3.20;;
22186;SDS011;11259;52.146;12.844;2022-12-07T04:58:52;3.75;;;2.80;;
22186;SDS011;11259;52.146;12.844;2022-12-07T05:01:20;2.67;;;1.90;;
22186;SDS011;11259;52.146;12.844;2022-12-07T05:03:46;3.60;;;2.65;;
22186;SDS011;11259;52.146;12.844;2022-12-07T05:06:11;2.92;;;2.20;;
22186;SDS011;11259;52.146;12.844;2022-12-07T05:08:37;5.78;;;3.42;;
22186;SDS011;11259;52.146;12.844;2022-12-07T05:11:03;6.22;;;2.92;;
22186;SDS011;11259;52.146;12.844;2022-12-07T05:13:30;3.13;;;2.15;;
22186;SDS011;11259;52.146;12.844;2022-12-07T05:15:55;4.50;;;2.53;;
22186;SDS011;11259;52.146;12.844;2022-12-07T05:18:22;5.22;;;2.53;;
22186;SDS011;11259;52.146;12.844;2022-12-07T05:20:48;5.88;;;3.03;;
22186;SDS011;11259;52.146;12.844;2022-12-07T05:23:13;3.60;;;3.30;;
22186;SDS011;11259;52.146;12.844;2022-12-07T05:25:39;5.35;;;3.38;;
22186;SDS011;11259;52.146;12.844;2022-12-07T05:28:04;4.63;;;2.67;;
22186;SDS011;11259;52.146;12.844;2022-12-07T05:30:30;3.78;;;2.70;;
22186;SDS011;11259;52.146;12.844;2022-12-07T05:32:56;3.92;;;2.80;;
22186;SDS011;11259;52.146;12.844;2022-12-07T05:35:23;5.38;;;3.63;;
22186;SDS011;11259;52.146;12.844;2022-12-07T05:37:49;2.90;;;2.15;;
22186;SDS011;11259;52.146;12.844;2022-12-07T05:40:14;7.50;;;2.97;;
22186;SDS011;11259;52.146;12.844;2022-12-07T05:42:40;4.63;;;3.00;;
22186;SDS011;11259;52.146;12.844;2022-12-07T05:45:06;6.32;;;3.20;;
22186;SDS011;11259;52.146;12.844;2022-12-07T05:47:32;7.28;;;3.45;;
22186;SDS011;11259;52.146;12.844;2022-12-07T05:49:57;5.10;;;2.95;;
22186;SDS011;11259;52.146;12.844;2022-12-07T05:52:24;6.13;;;3.40;;
22186;SDS011;11259;52.146;12.844;2022-12-07T05:54:49;4.15;;;2.55;;
22186;SDS011;11259;52.146;12.844;2022-12-07T05:57:15;6.85;;;3.13;;
22186;SDS011;11259;52.146;12.844;2022-12-07T05:59:40;3.80;;;2.67;;
22186;SDS011;11259;52.146;12.844;2022-12-07T06:02:06;6.55;;;3.35;;
22186;SDS011;11259;52.146;12.844;2022-12-07T06:04:34;4.53;;;3.00;;
22186;SDS011;11259;52.146;12.844;2022-12-07T06:07:01;5.07;;;3.05;;
22186;SDS011;11259;52.146;12.844;2022-12-07T06:09:28;6.07;;;3.35;;
22186;SDS011;11259;52.146;12.844;2022-12-07T06:11:54;5.30;;;3.90;;
22186;SDS011;11259;52.146;12.844;2022-12-07T06:14:20;3.50;;;3.13;;
22186;SDS011;11259;52.146;12.844;2022-12-07T06:16:45;3.65;;;2.50;;
22186;SDS011;11259;52.146;12.844;2022-12-07T06:19:11;6.70;;;2.97;;
22186;SDS011;11259;52.146;12.844;2022-12-07T06:21:36;4.25;;;2.63;;
22186;SDS011;11259;52.146;12.844;2022-12-07T06:24:02;4.50;;;2.85;;
22186;SDS011;11259;52.146;12.844;2022-12-07T06:26:29;4.30;;;2.17;;
22186;SDS011;11259;52.146;12.844;2022-12-07T06:28:54;4.95;;;2.63;;
22186;SDS011;11259;52.146;12.844;2022-12-07T06:31:20;3.78;;;2.83;;
22186;SDS011;11259;52.146;12.844;2022-12-07T06:33:45;6.57;;;3.67;;
22186;SDS011;11259;52.146;12.844;2022-12-07T06:36:11;5.28;;;3.42;;
22186;SDS011;11259;52.146;12.844;2022-12-07T06:38:36;4.05;;;3.25;;
22186;SDS011;11259;52.146;12.844;2022-12-07T06:41:02;8.30;;;3.75;;
22186;SDS011;11259;52.146;12.844;2022-12-07T06:43:29;6.28;;;2.90;;
22186;SDS011;11259;52.146;12.844;2022-12-07T06:45:55;4.80;;;2.63;;
22186;SDS011;11259;52.146;12.844;2022-12-07T06:48:20;7.57;;;3.88;;
22186;SDS011;11259;52.146;12.844;2022-12-07T06:50:46;3.58;;;2.72;;
22186;SDS011;11259;52.146;12.844;2022-12-07T06:53:11;6.22;;;3.45;;
22186;SDS011;11259;52.146;12.844;2022-12-07T06:55:36;3.63;;;2.80;;
22186;SDS011;11259;52.146;12.844;2022-12-07T06:58:02;5.25;;;2.70;;
22186;SDS011;11259;52.146;12.844;2022-12-07T07:00:30;8.43;;;3.50;;
22186;SDS011;11259;52.146;12.844;2022-12-07T07:02:55;5.40;;;3.08;;
22186;SDS011;11259;52.146;12.844;2022-12-07T07:05:21;4.65;;;3.28;;
22186;SDS011;11259;52.146;12.844;2022-12-07T07:07:46;5.13;;;3.28;;
22186;SDS011;11259;52.146;12.844;2022-12-07T07:10:11;4.32;;;3.65;;
22186;SDS011;11259;52.146;12.844;2022-12-07T07:12:37;5.78;;;2.88;;
22186;SDS011;11259;52.146;12.844;2022-12-07T07:15:03;5.25;;;3.60;;
22186;SDS011;11259;52.146;12.844;2022-12-07T07:17:30;6.07;;;3.65;;
22186;SDS011;11259;52.146;12.844;2022-12-07T07:19:55;3.55;;;2.78;;
22186;SDS011;11259;52.146;12.844;2022-12-07T07:22:21;5.90;;;2.58;;
22186;SDS011;11259;52.146;12.844;2022-12-07T07:24:46;6.07;;;2.92;;
22186;SDS011;11259;52.146;12.844;2022-12-07T07:27:11;4.72;;;2.50;;
22186;SDS011;11259;52.146;12.844;2022-12-07T07:29:37;6.88;;;3.42;;
22186;SDS011;11259;52.146;12.844;2022-12-07T07:32:02;8.50;;;4.15;;
22186;SDS011;11259;52.146;12.844;2022-12-07T07:34:29;5.07;;;2.92;;
22186;SDS011;11259;52.146;12.844;2022-12-07T07:36:55;4.05;;;2.97;;
22186;SDS011;11259;52.146;12.844;2022-12-07T07:39:20;4.18;;;3.47;;
22186;SDS011;11259;52.146;12.844;2022-12-07T07:41:45;3.38;;;2.05;;
22186;SDS011;11259;52.146;12.844;2022-12-07T07:44:11;5.20;;;2.40;;
22186;SDS011;11259;52.146;12.844;2022-12-07T07:46:37;4.55;;;3.17;;
22186;SDS011;11259;52.146;12.844;2022-12-07T07:49:02;6.00;;;2.67;;
22186;SDS011;11259;52.146;12.844;2022-12-07T07:51:29;3.00;;;2.05;;
22186;SDS011;11259;52.146;12.844;2022-12-07T07:53:54;2.92;;;2.03;;
22186;SDS011;11259;52.146;12.844;2022-12-07T07:56:20;2.33;;;2.13;;
22186;SDS011;11259;52.146;12.844;2022-12-07T07:58:45;3.17;;;2.88;;
22186;SDS011;11259;52.146;12.844;2022-12-07T08:01:10;2.92;;;2.22;;
22186;SDS011;11259;52.146;12.844;2022-12-07T08:03:36;4.93;;;3.00;;
22186;SDS011;11259;52.146;12.844;2022-12-07T08:06:01;2.85;;;1.80;;
22186;SDS011;11259;52.146;12.844;2022-12-07T08:08:28;4.18;;;3.38;;
22186;SDS011;11259;52.146;12.844;2022-12-07T08:10:54;4.10;;;2.50;;
22186;SDS011;11259;52.146;12.844;2022-12-07T08:13:19;2.40;;;1.90;;
22186;SDS011;11259;52.146;12.844;2022-12-07T08:15:45;5.80;;;3.38;;
22186;SDS011;11259;52.146;12.844;2022-12-07T08:18:12;9.75;;;3.08;;
22186;SDS011;11259;52.146;12.844;2022-12-07T08:20:38;4.65;;;3.30;;
22186;SDS011;11259;52.146;12.844;2022-12-07T08:23:04;4.53;;;2.47;;
22186;SDS011;11259;52.146;12.844;2022-12-07T08:25:31;2.78;;;2.58;;
22186;SDS011;11259;52.146;12.844;2022-12-07T08:27:57;3.15;;;1.88;;
22186;SDS011;11259;52.146;12.844;2022-12-07T08:30:23;3.05;;;2.40;;
22186;SDS011;11259;52.146;12.844;2022-12-07T08:32:49;2.95;;;2.13;;
22186;SDS011;11259;52.146;12.844;2022-12-07T08:35:14;2.97;;;2.30;;
22186;SDS011;11259;52.146;12.844;2022-12-07T08:37:40;3.22;;;2.50;;
22186;SDS011;11259;52.146;12.844;2022-12-07T08:40:06;3.88;;;2.25;;
22186;SDS011;11259;52.146;12.844;2022-12-07T08:42:34;2.38;;;1.98;;
22186;SDS011;11259;52.146;12.844;2022-12-07T08:45:00;4.38;;;2.03;;
22186;SDS011;11259;52.146;12.844;2022-12-07T08:47:25;2.45;;;2.08;;
22186;SDS011;11259;52.146;12.844;2022-12-07T08:49:51;2.45;;;1.85;;
22186;SDS011;11259;52.146;12.844;2022-12-07T08:52:16;1.45;;;1.35;;
22186;SDS011;11259;52.146;12.844;2022-12-07T08:54:42;5.13;;;2.30;;
22186;SDS011;11259;52.146;12.844;2022-12-07T08:57:07;3.55;;;2.30;;
22186;SDS011;11259;52.146;12.844;2022-12-07T08:59:34;3.35;;;2.20;;
22186;SDS011;11259;52.146;12.844;2022-12-07T09:02:01;6.10;;;3.17;;
22186;SDS011;11259;52.146;12.844;2022-12-07T09:04:26;5.68;;;2.78;;
22186;SDS011;11259;52.146;12.844;2022-12-07T09:06:51;1.70;;;1.48;;
22186;SDS011;11259;52.146;12.844;2022-12-07T09:09:18;2.78;;;1.85;;
22186;SDS011;11259;52.146;12.844;2022-12-07T09:11:43;2.10;;;1.70;;
22186;SDS011;11259;52.146;12.844;2022-12-07T09:14:08;3.83;;;1.88;;
22186;SDS011;11259;52.146;12.844;2022-12-07T09:16:35;8.65;;;1.85;;
22186;SDS011;11259;52.146;12.844;2022-12-07T09:19:00;2.65;;;1.58;;
22186;SDS011;11259;52.146;12.844;2022-12-07T09:21:26;3.63;;;2.15;;
22186;SDS011;11259;52.146;12.844;2022-12-07T09:23:51;1.63;;;1.38;;
22186;SDS011;11259;52.146;12.844;2022-12-07T09:26:16;1.85;;;1.60;;
22186;SDS011;11259;52.146;12.844;2022-12-07T09:28:42;3.17;;;1.80;;
22186;SDS011;11259;52.146;12.844;2022-12-07T09:31:07;2.00;;;1.60;;
22186;SDS011;11259;52.146;12.844;2022-12-07T09:33:34;1.73;;;1.42;;
22186;SDS011;11259;52.146;12.844;2022-12-07T09:35:59;4.60;;;1.70;;
22186;SDS011;11259;52.146;12.844;2022-12-07T09:38:24;1.75;;;1.42;;
22186;SDS011;11259;52.146;12.844;2022-12-07T09:40:50;1.30;;;1.13;;
22186;SDS011;11259;52.146;12.844;2022-12-07T09:43:16;2.05;;;1.48;;
22186;SDS011;11259;52.146;12.844;2022-12-07T09:45:43;2.30;;;1.63;;
22186;SDS011;11259;52.146;12.844;2022-12-07T09:48:11;1.30;;;1.20;;
22186;SDS011;11259;52.146;12.844;2022-12-07T09:50:42;1.85;;;1.38;;
22186;SDS011;11259;52.146;12.844;2022-12-07T09:53:08;1.75;;;1.30;;
22186;SDS011;11259;52.146;12.844;2022-12-07T09:55:37;1.88;;;1.77;;
22186;SDS011;11259;52.146;12.844;2022-12-07T09:58:03;1.17;;;1.08;;
22186;SDS011;11259;52.146;12.844;2022-12-07T10:00:28;2.05;;;1.08;;
22186;SDS011;11259;52.146;12.844;2022-12-07T10:02:54;1.77;;;1.42;;
22186;SDS011;11259;52.146;12.844;2022-12-07T10:05:22;1.50;;;1.27;;
22186;SDS011;11259;52.146;12.844;2022-12-07T10:07:52;3.53;;;1.50;;
22186;SDS011;11259;52.146;12.844;2022-12-07T10:10:17;1.65;;;1.05;;
22186;SDS011;11259;52.146;12.844;2022-12-07T10:12:55;1.30;;;1.20;;
22186;SDS011;11259;52.146;12.844;2022-12-07T10:15:22;2.25;;;1.52;;
22186;SDS011;11259;52.146;12.844;2022-12-07T10:17:48;1.20;;;1.10;;
22186;SDS011;11259;52.146;12.844;2022-12-07T10:20:16;3.13;;;1.33;;
22186;SDS011;11259;52.146;12.844;2022-12-07T10:22:58;1.60;;;1.50;;
22186;SDS011;11259;52.146;12.844;2022-12-07T10:25:26;1.23;;;1.15;;
22186;SDS011;11259;52.146;12.844;2022-12-07T10:27:57;1.75;;;1.48;;
22186;SDS011;11259;52.146;12.844;2022-12-07T10:30:23;1.50;;;1.10;;
22186;SDS011;11259;52.146;12.844;2022-12-07T10:32:48;1.67;;;1.40;;
22186;SDS011;11259;52.146;12.844;2022-12-07T10:35:21;5.65;;;1.20;;
22186;SDS011;11259;52.146;12.844;2022-12-07T10:37:49;2.72;;;1.73;;
22186;SDS011;11259;52.146;12.844;2022-12-07T10:40:27;2.00;;;1.15;;
22186;SDS011;11259;52.146;12.844;2022-12-07T10:43:05;1.83;;;1.05;;
22186;SDS011;11259;52.146;12.844;2022-12-07T10:45:41;1.60;;;1.50;;
22186;SDS011;11259;52.146;12.844;2022-12-07T10:48:27;1.20;;;1.10;;
22186;SDS011;11259;52.146;12.844;2022-12-07T10:50:59;1.95;;;1.45;;
22186;SDS011;11259;52.146;12.844;2022-12-07T10:56:35;1.52;;;0.98;;
22186;SDS011;11259;52.146;12.844;2022-12-07T10:59:22;1.20;;;0.98;;
22186;SDS011;11259;52.146;12.844;2022-12-07T11:04:24;1.80;;;1.27;;
22186;SDS011;11259;52.146;12.844;2022-12-07T11:06:56;1.10;;;1.00;;
22186;SDS011;11259;52.146;12.844;2022-12-07T11:09:32;1.70;;;1.20;;
22186;SDS011;11259;52.146;12.844;2022-12-07T11:12:08;1.20;;;1.10;;
22186;SDS011;11259;52.146;12.844;2022-12-07T11:14:38;1.42;;;1.33;;
22186;SDS011;11259;52.146;12.844;2022-12-07T11:17:07;1.88;;;1.38;;
22186;SDS011;11259;52.146;12.844;2022-12-07T11:19:43;3.03;;;1.13;;
22186;SDS011;11259;52.146;12.844;2022-12-07T11:22:15;1.67;;;1.23;;
22186;SDS011;11259;52.146;12.844;2022-12-07T11:24:47;6.10;;;3.60;;
22186;SDS011;11259;52.146;12.844;2022-12-07T11:27:19;6.93;;;4.32;;
22186;SDS011;11259;52.146;12.844;2022-12-07T11:29:51;5.38;;;3.50;;
22186;SDS011;11259;52.146;12.844;2022-12-07T11:32:26;4.10;;;2.92;;
22186;SDS011;11259;52.146;12.844;2022-12-07T11:35:02;2.45;;;2.20;;
22186;SDS011;11259;52.146;12.844;2022-12-07T11:37:32;2.53;;;1.83;;
22186;SDS011;11259;52.146;12.844;2022-12-07T11:40:00;2.10;;;1.63;;
22186;SDS011;11259;52.146;12.844;2022-12-07T11:42:29;5.93;;;1.73;;
22186;SDS011;11259;52.146;12.844;2022-12-07T11:44:56;4.35;;;1.10;;
22186;SDS011;11259;52.146;12.844;2022-12-07T11:47:26;1.67;;;1.33;;
22186;SDS011;11259;52.146;12.844;2022-12-07T11:49:56;1.60;;;1.50;;
22186;SDS011;11259;52.146;12.844;2022-12-07T11:52:27;1.48;;;1.38;;
22186;SDS011;11259;52.146;12.844;2022-12-07T11:54:57;1.30;;;1.10;;
22186;SDS011;11259;52.146;12.844;2022-12-07T11:57:25;1.58;;;1.48;;
22186;SDS011;11259;52.146;12.844;2022-12-07T11:59:57;2.10;;;1.83;;
22186;SDS011;11259;52.146;12.844;2022-12-07T12:02:26;1.50;;;1.40;;
22186;SDS011;11259;52.146;12.844;2022-12-07T12:04:54;1.00;;;1.00;;
22186;SDS011;11259;52.146;12.844;2022-12-07T12:07:24;1.35;;;1.20;;
22186;SDS011;11259;52.146;12.844;2022-12-07T12:09:52;2.97;;;1.60;;
22186;SDS011;11259;52.146;12.844;2022-12-07T12:12:32;3.13;;;1.88;;
22186;SDS011;11259;52.146;12.844;2022-12-07T12:15:09;2.50;;;1.75;;
22186;SDS011;11259;52.146;12.844;2022-12-07T12:17:56;1.95;;;1.48;;
22186;SDS011;11259;52.146;12.844;2022-12-07T12:20:29;2.28;;;1.60;;
22186;SDS011;11259;52.146;12.844;2022-12-07T12:22:58;2.60;;;1.70;;
22186;SDS011;11259;52.146;12.844;2022-12-07T12:25:27;1.45;;;1.35;;
22186;SDS011;11259;52.146;12.844;2022-12-07T12:27:55;1.85;;;1.55;;
22186;SDS011;11259;52.146;12.844;2022-12-07T12:30:24;2.17;;;1.48;;
22186;SDS011;11259;52.146;12.844;2022-12-07T12:33:00;2.55;;;1.90;;
22186;SDS011;11259;52.146;12.844;2022-12-07T12:35:28;4.55;;;1.88;;
22186;SDS011;11259;52.146;12.844;2022-12-07T12:37:55;3.50;;;2.63;;
22186;SDS011;11259;52.146;12.844;2022-12-07T12:40:54;4.95;;;3.05;;
22186;SDS011;11259;52.146;12.844;2022-12-07T12:49:13;5.13;;;3.35;;
22186;SDS011;11259;52.146;12.844;2022-12-07T12:51:49;4.65;;;3.00;;
22186;SDS011;11259;52.146;12.844;2022-12-07T12:54:18;4.38;;;3.10;;
22186;SDS011;11259;52.146;12.844;2022-12-07T12:56:46;3.15;;;2.17;;
22186;SDS011;11259;52.146;12.844;2022-12-07T12:59:22;5.05;;;2.80;;
22186;SDS011;11259;52.146;12.844;2022-12-07T13:01:50;5.47;;;3.05;;
22186;SDS011;11259;52.146;12.844;2022-12-07T13:04:27;5.22;;;2.92;;
22186;SDS011;11259;52.146;12.844;2022-12-07T13:06:59;2.45;;;1.75;;
22186;SDS011;11259;52.146;12.844;2022-12-07T13:09:25;2.40;;;1.73;;
22186;SDS011;11259;52.146;12.844;2022-12-07T13:11:56;3.47;;;2.15;;
22186;SDS011;11259;52.146;12.844;2022-12-07T13:14:43;3.40;;;2.33;;
22186;SDS011;11259;52.146;12.844;2022-12-07T13:23:15;2.75;;;2.15;;
22186;SDS011;11259;52.146;12.844;2022-12-07T13:25:51;3.13;;;2.20;;
22186;SDS011;11259;52.146;12.844;2022-12-07T13:28:35;3.00;;;1.95;;
22186;SDS011;11259;52.146;12.844;2022-12-07T13:31:11;1.73;;;1.52;;
22186;SDS011;11259;52.146;12.844;2022-12-07T13:33:39;1.30;;;1.20;;
22186;SDS011;11259;52.146;12.844;2022-12-07T13:36:04;3.30;;;2.03;;
22186;SDS011;11259;52.146;12.844;2022-12-07T13:38:37;1.70;;;1.38;;
22186;SDS011;11259;52.146;12.844;2022-12-07T13:41:04;1.85;;;1.50;;
22186;SDS011;11259;52.146;12.844;2022-12-07T13:43:42;2.88;;;1.20;;
22186;SDS011;11259;52.146;12.844;2022-12-07T13:46:12;2.65;;;1.40;;
22186;SDS011;11259;52.146;12.844;2022-12-07T13:48:43;2.05;;;1.45;;
22186;SDS011;11259;52.146;12.844;2022-12-07T13:51:16;1.40;;;1.30;;
22186;SDS011;11259;52.146;12.844;2022-12-07T13:53:45;1.95;;;1.75;;
22186;SDS011;11259;52.146;12.844;2022-12-07T13:56:12;1.45;;;1.20;;
22186;SDS011;11259;52.146;12.844;2022-12-07T13:58:39;1.98;;;1.52;;
22186;SDS011;11259;52.146;12.844;2022-12-07T14:01:04;2.85;;;1.45;;
22186;SDS011;11259;52.146;12.844;2022-12-07T14:03:32;1.17;;;1.00;;
22186;SDS011;11259;52.146;12.844;2022-12-07T14:06:03;1.65;;;1.55;;
22186;SDS011;11259;52.146;12.844;2022-12-07T14:08:36;1.75;;;1.40;;
22186;SDS011;11259;52.146;12.844;2022-12-07T14:11:02;1.25;;;1.08;;
22186;SDS011;11259;52.146;12.844;2022-12-07T14:13:28;1.73;;;1.60;;
22186;SDS011;11259;52.146;12.844;2022-12-07T14:15:56;2.03;;;1.42;;
22186;SDS011;11259;52.146;12.844;2022-12-07T14:18:25;3.47;;;2.50;;
22186;SDS011;11259;52.146;12.844;2022-12-07T14:21:01;4.10;;;2.55;;
22186;SDS011;11259;52.146;12.844;2022-12-07T14:23:27;4.75;;;3.08;;
22186;SDS011;11259;52.146;12.844;2022-12-07T14:25:53;3.03;;;2.25;;
22186;SDS011;11259;52.146;12.844;2022-12-07T14:28:25;2.75;;;2.15;;
22186;SDS011;11259;52.146;12.844;2022-12-07T14:30:51;4.30;;;1.98;;
22186;SDS011;11259;52.146;12.844;2022-12-07T14:33:17;4.13;;;2.35;;
22186;SDS011;11259;52.146;12.844;2022-12-07T14:35:43;3.72;;;2.25;;
22186;SDS011;11259;52.146;12.844;2022-12-07T14:38:10;2.22;;;1.98;;
22186;SDS011;11259;52.146;12.844;2022-12-07T14:40:35;4.43;;;3.15;;
22186;SDS011;11259;52.146;12.844;2022-12-07T14:43:01;4.43;;;2.45;;
22186;SDS011;11259;52.146;12.844;2022-12-07T14:45:28;3.35;;;2.10;;
22186;SDS011;11259;52.146;12.844;2022-12-07T14:47:53;3.33;;;2.22;;
22186;SDS011;11259;52.146;12.844;2022-12-07T14:50:19;2.67;;;2.15;;
22186;SDS011;11259;52.146;12.844;2022-12-07T14:52:46;4.40;;;2.47;;
22186;SDS011;11259;52.146;12.844;2022-12-07T14:55:16;3.35;;;2.53;;
22186;SDS011;11259;52.146;12.844;2022-12-07T14:57:45;3.38;;;2.33;;